»·PEaware :: N72C KHQM-KAST

N72C :: KHQM-KAST

FLIGHT INFORMATION

Flight Status: Arrived
Operator: Privately registered:
United States
More flights under this callsign
Pilot: Charles C. (26995)
Aircraft: SOCATA TBM-900
(TBM9)
More flights by this aircraft type
Origin: KHQM Bowerman
United States
Destination: KAST Astoria Regl
United States
More flights between these airports :: More routes between these airports
Route: +HQM V27 PULYI
File this flight plan on PilotEdge
Remarks:
Altitude:
(Current/Filed)
11,000ft
Speed:
(Current/Filed)
240kts
Departed: 18-Oct-20 08:18 AM
Arrived: 18-Oct-20 08:50 AM
Distance/Time
Traveled:
49nm/0:32
Distance/Time
To Go:
Arrived

Flight Plot

Page will automatically refresh every two minutes.

Flight plan parsing failed; only flown route is shown


Map Options




Map Legend


Flown Route
Filed Route
Departure Airport
Arrival Airport
Navaid (VOR, NDB)
Fix

Horizontal Profiles

Position Reports

Time Latitude Longitude Heading Altitude Ground
Speed
18-Oct-20 08:01 46.973561 -123.930112 90 16ft 0kts
18-Oct-20 08:02 46.973561 -123.930112 90 16ft 0kts
18-Oct-20 08:03 46.973561 -123.930112 90 16ft 0kts
18-Oct-20 08:04 46.973561 -123.930112 90 16ft 0kts
18-Oct-20 08:05 46.973561 -123.930112 90 16ft 0kts
18-Oct-20 08:06 46.973561 -123.930112 90 16ft 0kts
18-Oct-20 08:07 46.973561 -123.930112 90 16ft 0kts
18-Oct-20 08:08 46.973561 -123.930112 90 16ft 0kts
18-Oct-20 08:09 46.973561 -123.930112 90 16ft 0kts
18-Oct-20 08:10 46.973561 -123.930112 90 16ft 0kts
18-Oct-20 08:11 46.973561 -123.930112 90 16ft 0kts
18-Oct-20 08:12 46.973561 -123.930112 90 16ft 0kts
18-Oct-20 08:13 46.973561 -123.930112 90 16ft 0kts
18-Oct-20 08:14 46.973064 -123.927110 128 17ft 0kts
18-Oct-20 08:15 46.973064 -123.927110 128 17ft 0kts
18-Oct-20 08:16 46.972267 -123.927703 259 17ft 4kts
18-Oct-20 08:17 46.969813 -123.963808 265 1413ft 113kts
18-Oct-20 08:18 46.962786 -124.016597 260 3458ft 138kts
18-Oct-20 08:19 46.955911 -124.075580 262 5423ft 151kts
18-Oct-20 08:20 46.946160 -124.138332 241 7749ft 162kts
18-Oct-20 08:21 46.905113 -124.133239 169 9943ft 172kts
18-Oct-20 08:22 46.852927 -124.117085 167 11008ft 218kts
18-Oct-20 08:23 46.785593 -124.093445 166 11010ft 254kts
18-Oct-20 08:24 46.712198 -124.067999 166 11001ft 265kts
18-Oct-20 08:25 46.637391 -124.036275 161 11004ft 267kts
18-Oct-20 08:26 46.561245 -124.016806 164 11019ft 266kts
18-Oct-20 08:27 46.487683 -123.988822 146 11002ft 242kts
18-Oct-20 08:28 46.478144 -123.898086 85 9549ft 211kts
18-Oct-20 08:29 46.474729 -123.811258 97 7854ft 202kts
18-Oct-20 08:30 46.460716 -123.729448 108 6191ft 201kts
18-Oct-20 08:31 46.436787 -123.653306 120 4781ft 176kts
18-Oct-20 08:32 46.413039 -123.601482 130 4412ft 141kts
18-Oct-20 08:33 46.377920 -123.545696 139 4419ft 206kts
18-Oct-20 08:34 46.324568 -123.487624 150 4398ft 229kts
18-Oct-20 08:35 46.267400 -123.448930 158 4392ft 194kts
18-Oct-20 08:36 46.217496 -123.430062 167 4410ft 176kts
18-Oct-20 08:37 46.171127 -123.423663 186 4402ft 156kts
18-Oct-20 08:38 46.150841 -123.476170 246 4399ft 144kts
18-Oct-20 08:39 46.136418 -123.526733 242 4392ft 130kts
18-Oct-20 08:40 46.136537 -123.576538 287 4299ft 116kts
18-Oct-20 08:41 46.143609 -123.628317 275 3292ft 89kts
18-Oct-20 08:42 46.145217 -123.668467 274 2708ft 81kts
18-Oct-20 08:43 46.147441 -123.701614 265 2309ft 80kts
18-Oct-20 08:44 46.149852 -123.739193 269 1811ft 86kts
18-Oct-20 08:45 46.152149 -123.773881 267 1350ft 80kts
18-Oct-20 08:46 46.154435 -123.808632 266 890ft 78kts
18-Oct-20 08:47 46.156644 -123.840911 263 460ft 78kts
18-Oct-20 08:48 46.158721 -123.873073 275 14ft 66kts
18-Oct-20 08:49 46.157661 -123.880315 249 15ft 14kts
18-Oct-20 08:50 46.155947 -123.881685 339 14ft 0kts
18-Oct-20 08:51 46.155947 -123.881685 339 14ft 0kts
18-Oct-20 08:52 46.155947 -123.881685 339 14ft 0kts
18-Oct-20 08:53 46.155947 -123.881685 339 14ft 0kts
18-Oct-20 08:54 46.155947 -123.881685 339 14ft 0kts
18-Oct-20 08:55 46.155947 -123.881685 339 14ft 0kts
18-Oct-20 08:56 46.155947 -123.881685 339 14ft 0kts
18-Oct-20 08:57 46.155947 -123.881685 339 14ft 0kts
18-Oct-20 08:58 46.155947 -123.881685 339 14ft 0kts
18-Oct-20 08:59 46.155947 -123.881685 339 14ft 0kts
18-Oct-20 09:00 46.155947 -123.881685 339 14ft 0kts
18-Oct-20 09:01 46.155947 -123.881685 339 14ft 0kts
18-Oct-20 09:02 46.155947 -123.881685 339 14ft 0kts
18-Oct-20 09:03 46.155947 -123.881685 339 14ft 0kts

Navigation Log

Ident Type
Flight plan parsing failed, navigation log unavailable